sensor_id;sensor_type;location;lat;lon;timestamp;temperature;humidity
37426;DHT22;23285;50.180;7.036;2022-07-23T05:59:45;19.70;99.60
37426;DHT22;23285;50.180;7.036;2022-07-23T06:05:19;20.00;99.80
37426;DHT22;23285;50.180;7.036;2022-07-23T06:08:05;20.10;98.40
37426;DHT22;23285;50.180;7.036;2022-07-23T06:10:50;20.20;98.40
37426;DHT22;23285;50.180;7.036;2022-07-23T06:13:35;20.30;98.40
37426;DHT22;23285;50.180;7.036;2022-07-23T06:16:20;20.40;97.90
37426;DHT22;23285;50.180;7.036;2022-07-23T06:19:05;20.10;98.00
37426;DHT22;23285;50.180;7.036;2022-07-23T06:21:50;19.90;98.70
37426;DHT22;23285;50.180;7.036;2022-07-23T06:32:56;19.70;99.90
37426;DHT22;23285;50.180;7.036;2022-07-23T06:35:41;19.80;99.60
37426;DHT22;23285;50.180;7.036;2022-07-23T06:38:26;20.00;99.10
37426;DHT22;23285;50.180;7.036;2022-07-23T06:41:11;20.00;98.80
37426;DHT22;23285;50.180;7.036;2022-07-23T06:43:56;20.10;98.60
37426;DHT22;23285;50.180;7.036;2022-07-23T06:52:14;20.10;99.10
37426;DHT22;23285;50.180;7.036;2022-07-23T07:00:30;20.60;98.80
37426;DHT22;23285;50.180;7.036;2022-07-23T07:03:17;20.70;99.00
37426;DHT22;23285;50.180;7.036;2022-07-23T07:06:03;20.60;99.20
37426;DHT22;23285;50.180;7.036;2022-07-23T07:11:33;20.80;98.30
37426;DHT22;23285;50.180;7.036;2022-07-23T07:17:04;21.10;97.90
37426;DHT22;23285;50.180;7.036;2022-07-23T07:19:49;21.60;97.80
37426;DHT22;23285;50.180;7.036;2022-07-23T07:25:21;21.30;98.00
37426;DHT22;23285;50.180;7.036;2022-07-23T07:28:06;21.20;97.10
37426;DHT22;23285;50.180;7.036;2022-07-23T07:33:37;21.30;97.80
37426;DHT22;23285;50.180;7.036;2022-07-23T07:39:08;21.40;97.80
37426;DHT22;23285;50.180;7.036;2022-07-23T07:41:55;21.40;98.30
37426;DHT22;23285;50.180;7.036;2022-07-23T07:44:40;21.60;96.80
37426;DHT22;23285;50.180;7.036;2022-07-23T07:50:11;21.70;97.20
37426;DHT22;23285;50.180;7.036;2022-07-23T07:52:56;21.70;96.70
37426;DHT22;23285;50.180;7.036;2022-07-23T07:58:26;22.00;97.30
37426;DHT22;23285;50.180;7.036;2022-07-23T08:01:12;22.20;95.50
37426;DHT22;23285;50.180;7.036;2022-07-23T08:03:57;22.30;95.50
37426;DHT22;23285;50.180;7.036;2022-07-23T08:06:42;22.30;95.40
37426;DHT22;23285;50.180;7.036;2022-07-23T08:09:26;22.40;95.30
37426;DHT22;23285;50.180;7.036;2022-07-23T08:12:12;22.60;95.10
37426;DHT22;23285;50.180;7.036;2022-07-23T08:14:57;22.50;95.30
37426;DHT22;23285;50.180;7.036;2022-07-23T08:17:43;23.00;94.40
37426;DHT22;23285;50.180;7.036;2022-07-23T08:20:28;22.90;95.40
37426;DHT22;23285;50.180;7.036;2022-07-23T08:23:13;23.00;94.20
37426;DHT22;23285;50.180;7.036;2022-07-23T08:25:59;23.00;94.40
37426;DHT22;23285;50.180;7.036;2022-07-23T08:28:44;23.10;95.00
37426;DHT22;23285;50.180;7.036;2022-07-23T08:31:29;23.10;94.10
37426;DHT22;23285;50.180;7.036;2022-07-23T08:34:14;23.30;94.30
37426;DHT22;23285;50.180;7.036;2022-07-23T08:37:00;23.10;93.40
37426;DHT22;23285;50.180;7.036;2022-07-23T08:39:45;23.50;93.30
37426;DHT22;23285;50.180;7.036;2022-07-23T08:42:30;23.60;93.40
37426;DHT22;23285;50.180;7.036;2022-07-23T08:48:12;24.00;95.00
37426;DHT22;23285;50.180;7.036;2022-07-23T08:53:44;23.80;94.90
37426;DHT22;23285;50.180;7.036;2022-07-23T08:56:30;23.80;93.30
37426;DHT22;23285;50.180;7.036;2022-07-23T08:59:15;24.00;92.70
37426;DHT22;23285;50.180;7.036;2022-07-23T09:04:46;24.10;92.60
37426;DHT22;23285;50.180;7.036;2022-07-23T09:07:31;24.10;90.40
37426;DHT22;23285;50.180;7.036;2022-07-23T09:10:16;24.20;91.20
37426;DHT22;23285;50.180;7.036;2022-07-23T09:13:00;24.50;91.00
37426;DHT22;23285;50.180;7.036;2022-07-23T09:24:12;25.20;89.70
37426;DHT22;23285;50.180;7.036;2022-07-23T09:27:00;25.20;89.60
37426;DHT22;23285;50.180;7.036;2022-07-23T09:29:56;25.10;88.30
37426;DHT22;23285;50.180;7.036;2022-07-23T09:32:41;25.30;90.60
37426;DHT22;23285;50.180;7.036;2022-07-23T09:35:47;25.50;91.30
37426;DHT22;23285;50.180;7.036;2022-07-23T09:38:33;25.60;90.50
37426;DHT22;23285;50.180;7.036;2022-07-23T09:41:18;25.80;88.40
37426;DHT22;23285;50.180;7.036;2022-07-23T09:44:08;26.00;86.60
37426;DHT22;23285;50.180;7.036;2022-07-23T09:46:58;26.20;88.30
37426;DHT22;23285;50.180;7.036;2022-07-23T09:50:08;26.40;87.60
37426;DHT22;23285;50.180;7.036;2022-07-23T09:52:53;25.90;89.70
37426;DHT22;23285;50.180;7.036;2022-07-23T10:01:12;25.10;91.10
37426;DHT22;23285;50.180;7.036;2022-07-23T10:03:58;25.30;90.00
37426;DHT22;23285;50.180;7.036;2022-07-23T10:10:18;25.60;90.30
37426;DHT22;23285;50.180;7.036;2022-07-23T10:16:15;25.30;90.30
37426;DHT22;23285;50.180;7.036;2022-07-23T10:19:02;25.70;88.30
37426;DHT22;23285;50.180;7.036;2022-07-23T10:21:53;25.70;87.40
37426;DHT22;23285;50.180;7.036;2022-07-23T10:25:12;25.80;89.40
37426;DHT22;23285;50.180;7.036;2022-07-23T10:31:20;26.10;87.80
37426;DHT22;23285;50.180;7.036;2022-07-23T10:37:43;25.50;89.20
37426;DHT22;23285;50.180;7.036;2022-07-23T10:40:31;25.50;89.20
37426;DHT22;23285;50.180;7.036;2022-07-23T10:43:16;25.60;88.70
37426;DHT22;23285;50.180;7.036;2022-07-23T10:46:25;25.90;87.20
37426;DHT22;23285;50.180;7.036;2022-07-23T10:49:31;26.60;87.00
37426;DHT22;23285;50.180;7.036;2022-07-23T10:57:54;27.00;81.90
37426;DHT22;23285;50.180;7.036;2022-07-23T11:03:31;27.60;87.00
37426;DHT22;23285;50.180;7.036;2022-07-23T11:06:23;27.40;85.80
37426;DHT22;23285;50.180;7.036;2022-07-23T11:15:06;27.70;82.40
37426;DHT22;23285;50.180;7.036;2022-07-23T11:20:37;27.30;82.30
37426;DHT22;23285;50.180;7.036;2022-07-23T11:23:22;27.00;80.70
37426;DHT22;23285;50.180;7.036;2022-07-23T11:26:07;26.60;80.30
37426;DHT22;23285;50.180;7.036;2022-07-23T11:28:53;26.70;81.60
37426;DHT22;23285;50.180;7.036;2022-07-23T11:31:51;27.20;79.60
37426;DHT22;23285;50.180;7.036;2022-07-23T11:34:45;27.60;82.50
37426;DHT22;23285;50.180;7.036;2022-07-23T11:37:39;27.60;78.60
37426;DHT22;23285;50.180;7.036;2022-07-23T11:40:24;27.20;80.10
37426;DHT22;23285;50.180;7.036;2022-07-23T11:43:11;27.70;79.70
37426;DHT22;23285;50.180;7.036;2022-07-23T11:48:45;28.80;79.40
37426;DHT22;23285;50.180;7.036;2022-07-23T11:51:30;29.10;77.20
37426;DHT22;23285;50.180;7.036;2022-07-23T11:57:03;28.70;78.90
37426;DHT22;23285;50.180;7.036;2022-07-23T11:59:51;28.70;76.60
37426;DHT22;23285;50.180;7.036;2022-07-23T12:02:42;28.90;76.80
37426;DHT22;23285;50.180;7.036;2022-07-23T12:05:32;28.40;76.40
37426;DHT22;23285;50.180;7.036;2022-07-23T12:11:06;28.30;79.50
37426;DHT22;23285;50.180;7.036;2022-07-23T12:13:57;28.80;76.60
37426;DHT22;23285;50.180;7.036;2022-07-23T12:16:42;28.90;73.10
37426;DHT22;23285;50.180;7.036;2022-07-23T12:25:13;28.80;75.50
37426;DHT22;23285;50.180;7.036;2022-07-23T12:30:57;29.30;74.10
37426;DHT22;23285;50.180;7.036;2022-07-23T12:39:31;29.60;74.10
37426;DHT22;23285;50.180;7.036;2022-07-23T12:45:10;29.60;74.40
37426;DHT22;23285;50.180;7.036;2022-07-23T12:48:02;29.90;72.60
37426;DHT22;23285;50.180;7.036;2022-07-23T12:53:57;30.20;66.90
37426;DHT22;23285;50.180;7.036;2022-07-23T12:56:46;30.20;67.90
37426;DHT22;23285;50.180;7.036;2022-07-23T12:59:31;30.10;64.20
37426;DHT22;23285;50.180;7.036;2022-07-23T13:02:16;30.40;63.40
37426;DHT22;23285;50.180;7.036;2022-07-23T13:05:01;30.50;64.60
37426;DHT22;23285;50.180;7.036;2022-07-23T13:07:46;30.50;65.00
37426;DHT22;23285;50.180;7.036;2022-07-23T13:10:31;30.00;66.30
37426;DHT22;23285;50.180;7.036;2022-07-23T13:13:20;30.20;67.80
37426;DHT22;23285;50.180;7.036;2022-07-23T13:16:05;29.80;68.90
37426;DHT22;23285;50.180;7.036;2022-07-23T13:21:36;29.80;69.20
37426;DHT22;23285;50.180;7.036;2022-07-23T13:24:21;30.00;68.10
37426;DHT22;23285;50.180;7.036;2022-07-23T13:27:07;29.60;68.30
37426;DHT22;23285;50.180;7.036;2022-07-23T13:32:38;28.80;71.80
37426;DHT22;23285;50.180;7.036;2022-07-23T13:35:23;28.60;68.70
37426;DHT22;23285;50.180;7.036;2022-07-23T13:38:09;28.80;69.80
37426;DHT22;23285;50.180;7.036;2022-07-23T13:40:54;29.60;67.90
37426;DHT22;23285;50.180;7.036;2022-07-23T13:43:39;30.10;66.10
37426;DHT22;23285;50.180;7.036;2022-07-23T13:46:25;30.00;66.00
37426;DHT22;23285;50.180;7.036;2022-07-23T13:49:10;29.90;68.10
37426;DHT22;23285;50.180;7.036;2022-07-23T13:51:55;30.00;66.50
37426;DHT22;23285;50.180;7.036;2022-07-23T13:54:41;30.00;69.40
37426;DHT22;23285;50.180;7.036;2022-07-23T14:00:12;30.10;71.80
37426;DHT22;23285;50.180;7.036;2022-07-23T14:02:58;30.00;70.40
37426;DHT22;23285;50.180;7.036;2022-07-23T14:05:43;29.70;68.70
37426;DHT22;23285;50.180;7.036;2022-07-23T14:08:28;30.00;70.40
37426;DHT22;23285;50.180;7.036;2022-07-23T14:11:14;30.30;68.70
37426;DHT22;23285;50.180;7.036;2022-07-23T14:13:59;30.70;67.20
37426;DHT22;23285;50.180;7.036;2022-07-23T14:16:45;30.40;69.80
37426;DHT22;23285;50.180;7.036;2022-07-23T14:19:31;30.40;68.60
37426;DHT22;23285;50.180;7.036;2022-07-23T14:22:16;29.80;69.60
37426;DHT22;23285;50.180;7.036;2022-07-23T14:25:01;30.10;68.70
37426;DHT22;23285;50.180;7.036;2022-07-23T14:27:46;30.20;68.70
37426;DHT22;23285;50.180;7.036;2022-07-23T14:36:02;28.80;74.00
37426;DHT22;23285;50.180;7.036;2022-07-23T14:38:47;28.70;73.60
37426;DHT22;23285;50.180;7.036;2022-07-23T14:44:18;29.10;74.10
37426;DHT22;23285;50.180;7.036;2022-07-23T14:49:49;29.50;74.40
37426;DHT22;23285;50.180;7.036;2022-07-23T14:52:34;29.10;72.50
37426;DHT22;23285;50.180;7.036;2022-07-23T14:55:20;28.40;74.20
37426;DHT22;23285;50.180;7.036;2022-07-23T14:58:05;28.30;74.60
37426;DHT22;23285;50.180;7.036;2022-07-23T15:00:50;28.00;74.50
37426;DHT22;23285;50.180;7.036;2022-07-23T15:03:35;27.30;77.50
37426;DHT22;23285;50.180;7.036;2022-07-23T15:06:20;27.20;76.30
37426;DHT22;23285;50.180;7.036;2022-07-23T15:09:06;26.90;77.80
37426;DHT22;23285;50.180;7.036;2022-07-23T15:11:51;27.00;77.90
37426;DHT22;23285;50.180;7.036;2022-07-23T15:14:36;27.00;77.00
37426;DHT22;23285;50.180;7.036;2022-07-23T15:17:21;26.60;78.00
37426;DHT22;23285;50.180;7.036;2022-07-23T15:20:06;26.50;78.50
37426;DHT22;23285;50.180;7.036;2022-07-23T15:22:52;27.00;79.50
37426;DHT22;23285;50.180;7.036;2022-07-23T15:33:53;26.60;80.80
37426;DHT22;23285;50.180;7.036;2022-07-23T15:36:38;27.10;77.10
37426;DHT22;23285;50.180;7.036;2022-07-23T15:42:09;26.60;80.90
37426;DHT22;23285;50.180;7.036;2022-07-23T15:44:54;27.00;78.30
37426;DHT22;23285;50.180;7.036;2022-07-23T15:47:40;27.60;76.30
37426;DHT22;23285;50.180;7.036;2022-07-23T15:50:26;27.30;78.90
37426;DHT22;23285;50.180;7.036;2022-07-23T15:53:11;27.10;77.50
37426;DHT22;23285;50.180;7.036;2022-07-23T15:55:56;27.10;78.50
37426;DHT22;23285;50.180;7.036;2022-07-23T16:01:27;27.50;78.40
37426;DHT22;23285;50.180;7.036;2022-07-23T16:04:15;27.10;78.80
37426;DHT22;23285;50.180;7.036;2022-07-23T16:07:00;26.80;76.70
37426;DHT22;23285;50.180;7.036;2022-07-23T16:09:46;26.40;79.50
37426;DHT22;23285;50.180;7.036;2022-07-23T16:12:31;26.40;78.50
37426;DHT22;23285;50.180;7.036;2022-07-23T16:15:17;26.60;78.30
37426;DHT22;23285;50.180;7.036;2022-07-23T16:18:02;27.00;77.40
37426;DHT22;23285;50.180;7.036;2022-07-23T16:20:51;27.30;79.00
37426;DHT22;23285;50.180;7.036;2022-07-23T16:23:36;27.40;77.80
37426;DHT22;23285;50.180;7.036;2022-07-23T16:26:22;27.30;77.10
37426;DHT22;23285;50.180;7.036;2022-07-23T16:29:07;27.30;76.30
37426;DHT22;23285;50.180;7.036;2022-07-23T16:31:52;27.20;76.40
37426;DHT22;23285;50.180;7.036;2022-07-23T16:34:37;27.00;76.80
37426;DHT22;23285;50.180;7.036;2022-07-23T16:37:22;26.80;77.00
37426;DHT22;23285;50.180;7.036;2022-07-23T16:40:08;27.50;76.80
37426;DHT22;23285;50.180;7.036;2022-07-23T16:42:54;27.20;78.20
37426;DHT22;23285;50.180;7.036;2022-07-23T16:45:39;26.90;77.10
37426;DHT22;23285;50.180;7.036;2022-07-23T16:48:25;27.10;77.30
37426;DHT22;23285;50.180;7.036;2022-07-23T16:51:10;26.60;79.20
37426;DHT22;23285;50.180;7.036;2022-07-23T16:53:55;26.20;79.60
37426;DHT22;23285;50.180;7.036;2022-07-23T16:56:40;26.20;77.50
37426;DHT22;23285;50.180;7.036;2022-07-23T16:59:26;26.30;77.40
37426;DHT22;23285;50.180;7.036;2022-07-23T17:04:56;26.20;80.20
37426;DHT22;23285;50.180;7.036;2022-07-23T17:07:41;26.30;77.50
37426;DHT22;23285;50.180;7.036;2022-07-23T17:10:26;26.40;78.10
37426;DHT22;23285;50.180;7.036;2022-07-23T17:13:12;26.30;79.00
37426;DHT22;23285;50.180;7.036;2022-07-23T17:15:58;26.70;78.20
37426;DHT22;23285;50.180;7.036;2022-07-23T17:21:28;26.40;81.00
37426;DHT22;23285;50.180;7.036;2022-07-23T17:24:13;26.50;78.40
37426;DHT22;23285;50.180;7.036;2022-07-23T17:29:44;26.30;80.60
37426;DHT22;23285;50.180;7.036;2022-07-23T17:35:14;26.50;80.90
37426;DHT22;23285;50.180;7.036;2022-07-23T17:38:00;26.90;77.20
37426;DHT22;23285;50.180;7.036;2022-07-23T17:40:45;26.80;77.80
37426;DHT22;23285;50.180;7.036;2022-07-23T17:43:30;26.80;77.60
37426;DHT22;23285;50.180;7.036;2022-07-23T17:46:15;26.40;78.80
37426;DHT22;23285;50.180;7.036;2022-07-23T17:49:01;26.20;80.00
37426;DHT22;23285;50.180;7.036;2022-07-23T17:51:46;25.90;79.40
37426;DHT22;23285;50.180;7.036;2022-07-23T17:54:32;25.90;79.60
37426;DHT22;23285;50.180;7.036;2022-07-23T17:57:17;25.90;79.50
37426;DHT22;23285;50.180;7.036;2022-07-23T18:00:07;25.80;79.90
37426;DHT22;23285;50.180;7.036;2022-07-23T18:02:53;25.70;82.20
37426;DHT22;23285;50.180;7.036;2022-07-23T18:05:38;26.00;81.00
37426;DHT22;23285;50.180;7.036;2022-07-23T18:08:25;26.10;80.50
37426;DHT22;23285;50.180;7.036;2022-07-23T18:11:11;25.80;79.30
37426;DHT22;23285;50.180;7.036;2022-07-23T18:13:56;25.80;81.10
37426;DHT22;23285;50.180;7.036;2022-07-23T18:16:42;25.80;81.00
37426;DHT22;23285;50.180;7.036;2022-07-23T18:19:27;26.00;79.60
37426;DHT22;23285;50.180;7.036;2022-07-23T18:24:57;26.00;80.70
37426;DHT22;23285;50.180;7.036;2022-07-23T18:33:14;25.00;84.90
37426;DHT22;23285;50.180;7.036;2022-07-23T18:35:59;25.00;81.80
37426;DHT22;23285;50.180;7.036;2022-07-23T18:38:45;25.10;81.60
37426;DHT22;23285;50.180;7.036;2022-07-23T18:41:31;25.10;82.90
37426;DHT22;23285;50.180;7.036;2022-07-23T18:44:16;25.00;84.90
37426;DHT22;23285;50.180;7.036;2022-07-23T18:47:01;25.10;81.70
37426;DHT22;23285;50.180;7.036;2022-07-23T18:49:46;25.00;82.60
37426;DHT22;23285;50.180;7.036;2022-07-23T18:52:31;24.80;82.60
37426;DHT22;23285;50.180;7.036;2022-07-23T18:55:16;24.20;84.50
37426;DHT22;23285;50.180;7.036;2022-07-23T18:58:01;24.60;83.10
37426;DHT22;23285;50.180;7.036;2022-07-23T19:00:47;24.00;85.70
37426;DHT22;23285;50.180;7.036;2022-07-23T19:03:33;24.00;85.20
37426;DHT22;23285;50.180;7.036;2022-07-23T19:06:19;23.90;86.90
37426;DHT22;23285;50.180;7.036;2022-07-23T19:11:49;24.40;87.80
37426;DHT22;23285;50.180;7.036;2022-07-23T19:14:34;24.50;84.70
37426;DHT22;23285;50.180;7.036;2022-07-23T19:20:06;24.20;87.50
37426;DHT22;23285;50.180;7.036;2022-07-23T19:22:52;24.20;88.40
37426;DHT22;23285;50.180;7.036;2022-07-23T19:25:37;24.50;85.20
37426;DHT22;23285;50.180;7.036;2022-07-23T19:31:08;24.70;87.40
37426;DHT22;23285;50.180;7.036;2022-07-23T19:33:53;24.70;84.30
37426;DHT22;23285;50.180;7.036;2022-07-23T19:36:38;24.40;85.60
37426;DHT22;23285;50.180;7.036;2022-07-23T19:39:24;24.40;86.00
37426;DHT22;23285;50.180;7.036;2022-07-23T19:42:10;24.20;87.70
37426;DHT22;23285;50.180;7.036;2022-07-23T19:44:55;23.80;87.30
37426;DHT22;23285;50.180;7.036;2022-07-23T19:50:29;23.40;89.40
37426;DHT22;23285;50.180;7.036;2022-07-23T19:53:14;23.30;86.90
37426;DHT22;23285;50.180;7.036;2022-07-23T20:01:30;23.60;90.00
37426;DHT22;23285;50.180;7.036;2022-07-23T20:04:15;23.90;87.50
37426;DHT22;23285;50.180;7.036;2022-07-23T20:07:00;23.80;85.80
37426;DHT22;23285;50.180;7.036;2022-07-23T20:09:46;24.00;85.90
37426;DHT22;23285;50.180;7.036;2022-07-23T20:12:31;24.00;85.80
37426;DHT22;23285;50.180;7.036;2022-07-23T20:15:16;23.70;87.50
37426;DHT22;23285;50.180;7.036;2022-07-23T20:18:01;23.70;86.50
37426;DHT22;23285;50.180;7.036;2022-07-23T20:20:46;23.70;86.90
37426;DHT22;23285;50.180;7.036;2022-07-23T20:23:32;23.60;86.70
37426;DHT22;23285;50.180;7.036;2022-07-23T20:26:17;23.80;86.20
37426;DHT22;23285;50.180;7.036;2022-07-23T20:29:02;23.90;86.10
37426;DHT22;23285;50.180;7.036;2022-07-23T20:31:48;23.80;85.70
37426;DHT22;23285;50.180;7.036;2022-07-23T20:34:34;23.90;87.40
37426;DHT22;23285;50.180;7.036;2022-07-23T20:37:20;24.10;85.50
37426;DHT22;23285;50.180;7.036;2022-07-23T20:42:52;23.60;89.10
37426;DHT22;23285;50.180;7.036;2022-07-23T20:45:37;23.60;86.00
37426;DHT22;23285;50.180;7.036;2022-07-23T20:48:23;23.20;86.20
37426;DHT22;23285;50.180;7.036;2022-07-23T20:51:08;23.00;87.60
37426;DHT22;23285;50.180;7.036;2022-07-23T20:53:53;23.20;87.20
37426;DHT22;23285;50.180;7.036;2022-07-23T20:56:38;23.50;85.40
37426;DHT22;23285;50.180;7.036;2022-07-23T20:59:23;23.50;86.00
37426;DHT22;23285;50.180;7.036;2022-07-23T21:04:54;23.40;88.60
37426;DHT22;23285;50.180;7.036;2022-07-23T21:10:25;22.90;90.40
37426;DHT22;23285;50.180;7.036;2022-07-23T21:13:10;23.00;88.50
37426;DHT22;23285;50.180;7.036;2022-07-23T21:15:55;23.30;87.00
37426;DHT22;23285;50.180;7.036;2022-07-23T21:21:26;23.10;90.10
37426;DHT22;23285;50.180;7.036;2022-07-23T21:24:11;22.60;88.60
37426;DHT22;23285;50.180;7.036;2022-07-23T21:26:56;22.30;89.10
37426;DHT22;23285;50.180;7.036;2022-07-23T21:29:43;22.60;89.30
37426;DHT22;23285;50.180;7.036;2022-07-23T21:32:28;23.20;86.50
37426;DHT22;23285;50.180;7.036;2022-07-23T21:35:13;23.10;86.70
37426;DHT22;23285;50.180;7.036;2022-07-23T21:37:59;22.70;89.10
37426;DHT22;23285;50.180;7.036;2022-07-23T21:40:44;22.70;88.00
37426;DHT22;23285;50.180;7.036;2022-07-23T21:43:29;22.80;87.50
37426;DHT22;23285;50.180;7.036;2022-07-23T21:46:15;22.60;88.10
37426;DHT22;23285;50.180;7.036;2022-07-23T21:49:00;22.60;88.60
37426;DHT22;23285;50.180;7.036;2022-07-23T21:51:45;22.80;88.80
37426;DHT22;23285;50.180;7.036;2022-07-23T21:54:31;22.70;88.70
37426;DHT22;23285;50.180;7.036;2022-07-23T21:57:16;22.90;86.90
37426;DHT22;23285;50.180;7.036;2022-07-23T22:00:06;22.60;88.20
37426;DHT22;23285;50.180;7.036;2022-07-23T22:02:57;22.50;90.30
37426;DHT22;23285;50.180;7.036;2022-07-23T22:16:45;21.40;92.00
37426;DHT22;23285;50.180;7.036;2022-07-23T22:19:31;21.60;90.50
37426;DHT22;23285;50.180;7.036;2022-07-23T22:22:15;21.60;90.70
37426;DHT22;23285;50.180;7.036;2022-07-23T22:27:47;22.30;91.00
37426;DHT22;23285;50.180;7.036;2022-07-23T22:30:32;22.10;90.50
37426;DHT22;23285;50.180;7.036;2022-07-23T22:33:18;21.70;90.80
37426;DHT22;23285;50.180;7.036;2022-07-23T22:38:49;21.50;92.10
37426;DHT22;23285;50.180;7.036;2022-07-23T22:41:34;21.30;90.90
37426;DHT22;23285;50.180;7.036;2022-07-23T22:44:19;21.30;91.40
37426;DHT22;23285;50.180;7.036;2022-07-23T22:49:49;21.10;92.90
37426;DHT22;23285;50.180;7.036;2022-07-23T22:52:35;20.80;91.80
37426;DHT22;23285;50.180;7.036;2022-07-23T22:55:20;20.50;92.10
37426;DHT22;23285;50.180;7.036;2022-07-23T23:00:50;21.00;93.30
37426;DHT22;23285;50.180;7.036;2022-07-23T23:03:35;20.50;92.30
37426;DHT22;23285;50.180;7.036;2022-07-23T23:09:06;20.20;94.70
37426;DHT22;23285;50.180;7.036;2022-07-23T23:11:52;20.50;92.80
37426;DHT22;23285;50.180;7.036;2022-07-23T23:14:37;20.40;93.70
37426;DHT22;23285;50.180;7.036;2022-07-23T23:20:08;19.90;95.10
37426;DHT22;23285;50.180;7.036;2022-07-23T23:22:53;20.40;93.80
37426;DHT22;23285;50.180;7.036;2022-07-23T23:25:39;20.60;92.40
37426;DHT22;23285;50.180;7.036;2022-07-23T23:28:24;20.50;92.90
37426;DHT22;23285;50.180;7.036;2022-07-23T23:31:09;20.50;92.70
37426;DHT22;23285;50.180;7.036;2022-07-23T23:39:27;20.30;94.70
37426;DHT22;23285;50.180;7.036;2022-07-23T23:42:13;20.20;93.10
37426;DHT22;23285;50.180;7.036;2022-07-23T23:47:43;20.30;94.50
37426;DHT22;23285;50.180;7.036;2022-07-23T23:50:28;20.20;93.30
37426;DHT22;23285;50.180;7.036;2022-07-23T23:55:59;20.00;94.70
37426;DHT22;23285;50.180;7.036;2022-07-23T23:58:44;20.10;93.30
